sensor_id;sensor_type;location;lat;lon;timestamp;pressure;altitude;pressure_sealevel;temperature;humidity
32033;BME280;31720;52.638;9.216;2023-04-23T00:01:25;100369.38;;;15.28;100.00
32033;BME280;31720;52.638;9.216;2023-04-23T00:04:29;100365.66;;;15.31;100.00
32033;BME280;31720;52.638;9.216;2023-04-23T00:07:33;100354.56;;;15.37;100.00
32033;BME280;31720;52.638;9.216;2023-04-23T00:10:35;100365.38;;;15.34;100.00
32033;BME280;31720;52.638;9.216;2023-04-23T00:13:38;100364.31;;;15.25;100.00
32033;BME280;31720;52.638;9.216;2023-04-23T00:16:40;100367.94;;;15.13;100.00
32033;BME280;31720;52.638;9.216;2023-04-23T00:19:42;100367.94;;;15.13;100.00
32033;BME280;31720;52.638;9.216;2023-04-23T00:22:43;100358.09;;;15.04;100.00
32033;BME280;31720;52.638;9.216;2023-04-23T00:25:44;100359.25;;;14.88;100.00
32033;BME280;31720;52.638;9.216;2023-04-23T00:28:47;100350.25;;;14.91;100.00
32033;BME280;31720;52.638;9.216;2023-04-23T00:31:48;100361.63;;;14.69;100.00
32033;BME280;31720;52.638;9.216;2023-04-23T00:34:50;100352.59;;;14.71;100.00
32033;BME280;31720;52.638;9.216;2023-04-23T00:37:51;100347.56;;;14.80;100.00
32033;BME280;31720;52.638;9.216;2023-04-23T00:40:53;100342.91;;;14.72;100.00
32033;BME280;31720;52.638;9.216;2023-04-23T00:43:56;100358.72;;;14.61;100.00
32033;BME280;31720;52.638;9.216;2023-04-23T00:46:59;100358.59;;;14.62;100.00
32033;BME280;31720;52.638;9.216;2023-04-23T00:50:01;100363.16;;;14.49;100.00
32033;BME280;31720;52.638;9.216;2023-04-23T00:53:03;100363.44;;;14.33;100.00
32033;BME280;31720;52.638;9.216;2023-04-23T00:56:05;100371.84;;;14.03;100.00
32033;BME280;31720;52.638;9.216;2023-04-23T00:59:09;100367.09;;;14.08;100.00
32033;BME280;31720;52.638;9.216;2023-04-23T01:02:10;100368.19;;;13.93;100.00
32033;BME280;31720;52.638;9.216;2023-04-23T01:05:13;100365.16;;;13.86;100.00
32033;BME280;31720;52.638;9.216;2023-04-23T01:08:16;100367.09;;;13.71;100.00
32033;BME280;31720;52.638;9.216;2023-04-23T01:11:18;100367.75;;;13.75;100.00
32033;BME280;31720;52.638;9.216;2023-04-23T01:14:21;100367.06;;;13.60;100.00
32033;BME280;31720;52.638;9.216;2023-04-23T01:17:22;100378.06;;;13.54;100.00
32033;BME280;31720;52.638;9.216;2023-04-23T01:20:24;100377.44;;;13.51;100.00
32033;BME280;31720;52.638;9.216;2023-04-23T01:23:27;100382.38;;;13.55;100.00
32033;BME280;31720;52.638;9.216;2023-04-23T01:26:28;100383.38;;;13.41;100.00
32033;BME280;31720;52.638;9.216;2023-04-23T01:29:31;100372.06;;;13.39;100.00
32033;BME280;31720;52.638;9.216;2023-04-23T01:32:33;100381.19;;;13.23;100.00
32033;BME280;31720;52.638;9.216;2023-04-23T01:35:35;100392.25;;;13.28;100.00
32033;BME280;31720;52.638;9.216;2023-04-23T01:38:38;100392.44;;;13.12;100.00
32033;BME280;31720;52.638;9.216;2023-04-23T01:41:40;100413.03;;;13.19;100.00
32033;BME280;31720;52.638;9.216;2023-04-23T01:44:41;100402.34;;;13.21;100.00
32033;BME280;31720;52.638;9.216;2023-04-23T01:47:43;100401.75;;;13.05;100.00
32033;BME280;31720;52.638;9.216;2023-04-23T01:50:44;100410.72;;;13.02;100.00
32033;BME280;31720;52.638;9.216;2023-04-23T01:53:47;100409.34;;;12.97;100.00
32033;BME280;31720;52.638;9.216;2023-04-23T01:56:48;100424.22;;;12.98;100.00
32033;BME280;31720;52.638;9.216;2023-04-23T01:59:56;100414.19;;;12.77;100.00
32033;BME280;31720;52.638;9.216;2023-04-23T02:03:01;100408.16;;;12.75;100.00
32033;BME280;31720;52.638;9.216;2023-04-23T02:06:02;100411.88;;;12.73;100.00
32033;BME280;31720;52.638;9.216;2023-04-23T02:09:06;100421.38;;;12.88;100.00
32033;BME280;31720;52.638;9.216;2023-04-23T02:12:07;100413.66;;;12.72;100.00
32033;BME280;31720;52.638;9.216;2023-04-23T02:15:10;100410.69;;;12.64;100.00
32033;BME280;31720;52.638;9.216;2023-04-23T02:18:11;100415.84;;;12.65;100.00
32033;BME280;31720;52.638;9.216;2023-04-23T02:21:13;100423.13;;;12.62;100.00
32033;BME280;31720;52.638;9.216;2023-04-23T02:24:15;100419.63;;;12.61;100.00
32033;BME280;31720;52.638;9.216;2023-04-23T02:27:17;100418.50;;;12.65;100.00
32033;BME280;31720;52.638;9.216;2023-04-23T02:30:18;100417.13;;;12.60;100.00
32033;BME280;31720;52.638;9.216;2023-04-23T02:33:20;100421.00;;;12.67;100.00
32033;BME280;31720;52.638;9.216;2023-04-23T02:36:21;100421.75;;;12.56;100.00
32033;BME280;31720;52.638;9.216;2023-04-23T02:39:24;100420.25;;;12.52;100.00
32033;BME280;31720;52.638;9.216;2023-04-23T02:42:26;100432.94;;;12.60;100.00
32033;BME280;31720;52.638;9.216;2023-04-23T02:45:27;100437.13;;;12.62;100.00
32033;BME280;31720;52.638;9.216;2023-04-23T02:48:28;100434.28;;;12.53;100.00
32033;BME280;31720;52.638;9.216;2023-04-23T02:51:30;100433.97;;;12.57;100.00
32033;BME280;31720;52.638;9.216;2023-04-23T02:54:32;100432.91;;;12.47;100.00
32033;BME280;31720;52.638;9.216;2023-04-23T02:57:36;100431.06;;;12.35;100.00
32033;BME280;31720;52.638;9.216;2023-04-23T03:00:37;100436.84;;;12.27;100.00
32033;BME280;31720;52.638;9.216;2023-04-23T03:03:38;100435.38;;;12.23;100.00
32033;BME280;31720;52.638;9.216;2023-04-23T03:06:40;100432.38;;;12.15;100.00
32033;BME280;31720;52.638;9.216;2023-04-23T03:09:43;100438.84;;;12.24;100.00
32033;BME280;31720;52.638;9.216;2023-04-23T03:12:44;100443.94;;;12.12;100.00
32033;BME280;31720;52.638;9.216;2023-04-23T03:15:45;100443.06;;;11.99;100.00
32033;BME280;31720;52.638;9.216;2023-04-23T03:18:47;100445.31;;;12.05;100.00
32033;BME280;31720;52.638;9.216;2023-04-23T03:21:48;100450.69;;;12.04;100.00
32033;BME280;31720;52.638;9.216;2023-04-23T03:24:51;100451.88;;;11.98;100.00
32033;BME280;31720;52.638;9.216;2023-04-23T03:27:53;100448.34;;;11.85;100.00
32033;BME280;31720;52.638;9.216;2023-04-23T03:30:55;100442.41;;;11.81;100.00
32033;BME280;31720;52.638;9.216;2023-04-23T03:33:56;100448.34;;;11.71;100.00
32033;BME280;31720;52.638;9.216;2023-04-23T03:36:58;100439.63;;;11.56;100.00
32033;BME280;31720;52.638;9.216;2023-04-23T03:40:00;100444.50;;;11.62;100.00
32033;BME280;31720;52.638;9.216;2023-04-23T03:43:06;100448.94;;;11.47;100.00
32033;BME280;31720;52.638;9.216;2023-04-23T03:46:08;100451.16;;;11.53;100.00
32033;BME280;31720;52.638;9.216;2023-04-23T03:49:09;100460.56;;;11.57;100.00
32033;BME280;31720;52.638;9.216;2023-04-23T03:52:10;100461.53;;;11.42;100.00
32033;BME280;31720;52.638;9.216;2023-04-23T03:55:13;100449.31;;;11.41;100.00
32033;BME280;31720;52.638;9.216;2023-04-23T03:58:14;100460.41;;;11.32;100.00
32033;BME280;31720;52.638;9.216;2023-04-23T04:01:16;100466.22;;;11.23;100.00
32033;BME280;31720;52.638;9.216;2023-04-23T04:04:17;100477.59;;;11.23;100.00
32033;BME280;31720;52.638;9.216;2023-04-23T04:07:19;100473.06;;;11.11;100.00
32033;BME280;31720;52.638;9.216;2023-04-23T04:10:22;100478.41;;;11.09;100.00
32033;BME280;31720;52.638;9.216;2023-04-23T04:13:24;100482.00;;;11.08;100.00
32033;BME280;31720;52.638;9.216;2023-04-23T04:16:25;100480.84;;;11.12;100.00
32033;BME280;31720;52.638;9.216;2023-04-23T04:19:26;100480.00;;;10.98;100.00
32033;BME280;31720;52.638;9.216;2023-04-23T04:22:28;100489.38;;;11.02;100.00
32033;BME280;31720;52.638;9.216;2023-04-23T04:25:31;100484.94;;;10.88;100.00
32033;BME280;31720;52.638;9.216;2023-04-23T04:28:32;100486.47;;;10.92;100.00
32033;BME280;31720;52.638;9.216;2023-04-23T04:31:36;100492.97;;;11.01;100.00
32033;BME280;31720;52.638;9.216;2023-04-23T04:34:37;100490.91;;;11.06;100.00
32033;BME280;31720;52.638;9.216;2023-04-23T04:37:39;100479.25;;;11.10;100.00
32033;BME280;31720;52.638;9.216;2023-04-23T04:40:42;100491.19;;;11.01;100.00
32033;BME280;31720;52.638;9.216;2023-04-23T04:43:44;100496.81;;;10.95;100.00
32033;BME280;31720;52.638;9.216;2023-04-23T04:46:47;100500.28;;;10.96;100.00
32033;BME280;31720;52.638;9.216;2023-04-23T04:49:48;100504.88;;;10.92;100.00
32033;BME280;31720;52.638;9.216;2023-04-23T04:52:50;100500.25;;;10.81;100.00
32033;BME280;31720;52.638;9.216;2023-04-23T04:55:52;100515.00;;;10.98;100.00
32033;BME280;31720;52.638;9.216;2023-04-23T04:58:54;100508.06;;;10.97;100.00
32033;BME280;31720;52.638;9.216;2023-04-23T05:01:55;100505.81;;;10.91;100.00
32033;BME280;31720;52.638;9.216;2023-04-23T05:04:57;100500.06;;;10.99;100.00
32033;BME280;31720;52.638;9.216;2023-04-23T05:07:58;100502.16;;;11.08;100.00
32033;BME280;31720;52.638;9.216;2023-04-23T05:11:02;100507.41;;;11.08;100.00
32033;BME280;31720;52.638;9.216;2023-04-23T05:14:04;100502.63;;;11.00;100.00
32033;BME280;31720;52.638;9.216;2023-04-23T05:17:05;100502.50;;;10.87;100.00
32033;BME280;31720;52.638;9.216;2023-04-23T05:20:08;100510.13;;;10.92;100.00
32033;BME280;31720;52.638;9.216;2023-04-23T05:23:10;100510.69;;;10.97;100.00
32033;BME280;31720;52.638;9.216;2023-04-23T05:26:13;100509.84;;;10.97;100.00
32033;BME280;31720;52.638;9.216;2023-04-23T05:29:14;100512.34;;;10.84;100.00
32033;BME280;31720;52.638;9.216;2023-04-23T05:32:18;100509.34;;;10.90;100.00
32033;BME280;31720;52.638;9.216;2023-04-23T05:35:19;100522.25;;;10.95;100.00
32033;BME280;31720;52.638;9.216;2023-04-23T05:38:21;100518.44;;;10.84;100.00
32033;BME280;31720;52.638;9.216;2023-04-23T05:41:24;100524.94;;;10.93;100.00
32033;BME280;31720;52.638;9.216;2023-04-23T05:44:25;100530.53;;;11.03;100.00
32033;BME280;31720;52.638;9.216;2023-04-23T05:47:27;100525.25;;;11.03;100.00
32033;BME280;31720;52.638;9.216;2023-04-23T05:50:28;100515.09;;;10.97;100.00
32033;BME280;31720;52.638;9.216;2023-04-23T05:53:30;100512.78;;;11.06;100.00
32033;BME280;31720;52.638;9.216;2023-04-23T05:56:33;100508.28;;;11.08;100.00
32033;BME280;31720;52.638;9.216;2023-04-23T05:59:34;100509.59;;;11.15;100.00
32033;BME280;31720;52.638;9.216;2023-04-23T06:02:36;100508.69;;;11.31;100.00
32033;BME280;31720;52.638;9.216;2023-04-23T06:05:37;100509.63;;;11.44;100.00
32033;BME280;31720;52.638;9.216;2023-04-23T06:08:39;100510.97;;;11.51;100.00
32033;BME280;31720;52.638;9.216;2023-04-23T06:11:42;100516.78;;;11.42;100.00
32033;BME280;31720;52.638;9.216;2023-04-23T06:14:43;100511.13;;;11.34;100.00
32033;BME280;31720;52.638;9.216;2023-04-23T06:17:44;100510.19;;;11.35;100.00
32033;BME280;31720;52.638;9.216;2023-04-23T06:20:46;100507.00;;;11.44;100.00
32033;BME280;31720;52.638;9.216;2023-04-23T06:23:50;100505.97;;;11.47;100.00
32033;BME280;31720;52.638;9.216;2023-04-23T06:26:53;100501.28;;;11.52;100.00
32033;BME280;31720;52.638;9.216;2023-04-23T06:29:54;100502.59;;;11.59;100.00
32033;BME280;31720;52.638;9.216;2023-04-23T06:32:56;100506.47;;;11.67;100.00
32033;BME280;31720;52.638;9.216;2023-04-23T06:35:57;100493.84;;;11.73;100.00
32033;BME280;31720;52.638;9.216;2023-04-23T06:38:58;100490.16;;;11.75;100.00
32033;BME280;31720;52.638;9.216;2023-04-23T06:42:01;100488.31;;;11.77;100.00
32033;BME280;31720;52.638;9.216;2023-04-23T06:45:03;100496.56;;;11.71;100.00
32033;BME280;31720;52.638;9.216;2023-04-23T06:48:05;100490.28;;;11.74;100.00
32033;BME280;31720;52.638;9.216;2023-04-23T06:51:06;100490.00;;;11.78;100.00
32033;BME280;31720;52.638;9.216;2023-04-23T06:54:08;100502.09;;;11.81;100.00
32033;BME280;31720;52.638;9.216;2023-04-23T06:57:10;100508.88;;;11.71;100.00
32033;BME280;31720;52.638;9.216;2023-04-23T07:00:12;100507.38;;;11.66;100.00
32033;BME280;31720;52.638;9.216;2023-04-23T07:03:14;100504.69;;;11.54;100.00
32033;BME280;31720;52.638;9.216;2023-04-23T07:06:15;100502.31;;;11.49;100.00
32033;BME280;31720;52.638;9.216;2023-04-23T07:09:17;100503.69;;;11.26;100.00
32033;BME280;31720;52.638;9.216;2023-04-23T07:12:20;100509.56;;;11.31;100.00
32033;BME280;31720;52.638;9.216;2023-04-23T07:15:21;100498.75;;;11.50;100.00
32033;BME280;31720;52.638;9.216;2023-04-23T07:18:23;100491.78;;;11.63;100.00
32033;BME280;31720;52.638;9.216;2023-04-23T07:21:24;100497.50;;;11.70;100.00
32033;BME280;31720;52.638;9.216;2023-04-23T07:24:26;100484.63;;;11.80;100.00
32033;BME280;31720;52.638;9.216;2023-04-23T07:27:29;100491.06;;;11.90;100.00
32033;BME280;31720;52.638;9.216;2023-04-23T07:30:30;100487.00;;;11.84;100.00
32033;BME280;31720;52.638;9.216;2023-04-23T07:33:32;100490.66;;;11.96;100.00
32033;BME280;31720;52.638;9.216;2023-04-23T07:36:33;100477.09;;;12.02;100.00
32033;BME280;31720;52.638;9.216;2023-04-23T07:39:35;100470.69;;;12.06;100.00
32033;BME280;31720;52.638;9.216;2023-04-23T07:42:37;100480.81;;;12.12;100.00
32033;BME280;31720;52.638;9.216;2023-04-23T07:45:39;100481.31;;;12.05;100.00
32033;BME280;31720;52.638;9.216;2023-04-23T07:48:40;100470.44;;;11.97;100.00
32033;BME280;31720;52.638;9.216;2023-04-23T07:51:42;100479.09;;;11.84;100.00
32033;BME280;31720;52.638;9.216;2023-04-23T07:54:43;100470.34;;;11.84;100.00
32033;BME280;31720;52.638;9.216;2023-04-23T07:57:46;100478.91;;;11.87;100.00
32033;BME280;31720;52.638;9.216;2023-04-23T08:00:48;100470.72;;;11.92;100.00
32033;BME280;31720;52.638;9.216;2023-04-23T08:03:49;100468.50;;;11.86;100.00
32033;BME280;31720;52.638;9.216;2023-04-23T08:06:51;100454.75;;;11.95;100.00
32033;BME280;31720;52.638;9.216;2023-04-23T08:09:52;100456.59;;;11.93;100.00
32033;BME280;31720;52.638;9.216;2023-04-23T08:12:55;100451.50;;;12.04;100.00
32033;BME280;31720;52.638;9.216;2023-04-23T08:15:56;100466.22;;;12.21;100.00
32033;BME280;31720;52.638;9.216;2023-04-23T08:18:58;100465.31;;;12.35;100.00
32033;BME280;31720;52.638;9.216;2023-04-23T08:22:00;100450.94;;;12.53;100.00
32033;BME280;31720;52.638;9.216;2023-04-23T08:25:01;100457.63;;;12.72;100.00
32033;BME280;31720;52.638;9.216;2023-04-23T08:28:05;100453.53;;;12.80;100.00
32033;BME280;31720;52.638;9.216;2023-04-23T08:31:06;100452.38;;;12.84;100.00
32033;BME280;31720;52.638;9.216;2023-04-23T08:34:08;100446.69;;;12.78;100.00
32033;BME280;31720;52.638;9.216;2023-04-23T08:37:09;100433.69;;;12.75;100.00
32033;BME280;31720;52.638;9.216;2023-04-23T08:40:11;100434.97;;;12.82;100.00
32033;BME280;31720;52.638;9.216;2023-04-23T08:43:18;100432.22;;;12.83;100.00
32033;BME280;31720;52.638;9.216;2023-04-23T08:46:20;100436.22;;;12.89;100.00
32033;BME280;31720;52.638;9.216;2023-04-23T08:49:24;100427.09;;;12.94;100.00
32033;BME280;31720;52.638;9.216;2023-04-23T08:52:32;100424.75;;;13.15;100.00
32033;BME280;31720;52.638;9.216;2023-04-23T08:55:34;100426.78;;;13.25;100.00
32033;BME280;31720;52.638;9.216;2023-04-23T08:58:37;100426.03;;;13.35;100.00
32033;BME280;31720;52.638;9.216;2023-04-23T09:01:40;100438.16;;;13.38;100.00
32033;BME280;31720;52.638;9.216;2023-04-23T09:04:42;100426.66;;;13.39;100.00
32033;BME280;31720;52.638;9.216;2023-04-23T09:07:44;100422.97;;;13.41;100.00
32033;BME280;31720;52.638;9.216;2023-04-23T09:10:46;100414.22;;;13.41;100.00
32033;BME280;31720;52.638;9.216;2023-04-23T09:13:50;100423.56;;;13.58;100.00
32033;BME280;31720;52.638;9.216;2023-04-23T09:16:52;100400.19;;;13.77;100.00
32033;BME280;31720;52.638;9.216;2023-04-23T09:19:54;100390.97;;;13.83;100.00
32033;BME280;31720;52.638;9.216;2023-04-23T09:22:55;100392.13;;;14.03;100.00
32033;BME280;31720;52.638;9.216;2023-04-23T09:25:57;100385.03;;;14.03;100.00
32033;BME280;31720;52.638;9.216;2023-04-23T09:28:59;100385.66;;;14.07;100.00
32033;BME280;31720;52.638;9.216;2023-04-23T09:32:06;100384.91;;;14.17;100.00
32033;BME280;31720;52.638;9.216;2023-04-23T09:35:10;100386.13;;;14.25;100.00
32033;BME280;31720;52.638;9.216;2023-04-23T09:38:13;100367.16;;;14.31;100.00
32033;BME280;31720;52.638;9.216;2023-04-23T09:41:21;100373.88;;;14.35;100.00
32033;BME280;31720;52.638;9.216;2023-04-23T09:44:24;100374.50;;;14.38;100.00
32033;BME280;31720;52.638;9.216;2023-04-23T09:47:31;100380.47;;;14.53;100.00
32033;BME280;31720;52.638;9.216;2023-04-23T09:50:33;100377.88;;;14.64;100.00
32033;BME280;31720;52.638;9.216;2023-04-23T09:53:40;100372.72;;;14.74;100.00
32033;BME280;31720;52.638;9.216;2023-04-23T09:56:42;100371.50;;;14.78;100.00
32033;BME280;31720;52.638;9.216;2023-04-23T09:59:45;100365.88;;;14.83;100.00
32033;BME280;31720;52.638;9.216;2023-04-23T10:02:48;100359.16;;;14.90;100.00
32033;BME280;31720;52.638;9.216;2023-04-23T10:05:53;100361.66;;;15.03;100.00
32033;BME280;31720;52.638;9.216;2023-04-23T10:08:55;100361.06;;;15.10;100.00
32033;BME280;31720;52.638;9.216;2023-04-23T10:11:58;100349.41;;;15.24;100.00
32033;BME280;31720;52.638;9.216;2023-04-23T10:15:03;100350.97;;;15.27;100.00
32033;BME280;31720;52.638;9.216;2023-04-23T10:18:06;100351.31;;;15.33;98.80
32033;BME280;31720;52.638;9.216;2023-04-23T10:21:08;100342.63;;;15.42;100.00
32033;BME280;31720;52.638;9.216;2023-04-23T10:24:12;100348.78;;;15.43;100.00
32033;BME280;31720;52.638;9.216;2023-04-23T10:27:14;100347.56;;;15.47;100.00
32033;BME280;31720;52.638;9.216;2023-04-23T10:30:19;100341.91;;;15.52;100.00
32033;BME280;31720;52.638;9.216;2023-04-23T10:33:20;100345.03;;;15.68;100.00
32033;BME280;31720;52.638;9.216;2023-04-23T10:36:23;100344.00;;;15.91;99.96
32033;BME280;31720;52.638;9.216;2023-04-23T10:39:27;100346.88;;;16.20;100.00
32033;BME280;31720;52.638;9.216;2023-04-23T10:42:30;100340.75;;;16.20;94.31
32033;BME280;31720;52.638;9.216;2023-04-23T10:45:33;100333.00;;;16.28;94.01
32033;BME280;31720;52.638;9.216;2023-04-23T10:48:50;100336.69;;;16.37;95.72
32033;BME280;31720;52.638;9.216;2023-04-23T10:51:58;100329.63;;;16.47;97.04
32033;BME280;31720;52.638;9.216;2023-04-23T10:55:00;100331.03;;;16.51;96.95
32033;BME280;31720;52.638;9.216;2023-04-23T10:58:03;100327.31;;;16.54;97.17
32033;BME280;31720;52.638;9.216;2023-04-23T11:01:06;100318.72;;;16.40;95.43
32033;BME280;31720;52.638;9.216;2023-04-23T11:04:21;100320.56;;;16.49;90.90
32033;BME280;31720;52.638;9.216;2023-04-23T11:07:25;100325.47;;;16.75;96.41
32033;BME280;31720;52.638;9.216;2023-04-23T11:10:30;100316.75;;;16.94;85.95
32033;BME280;31720;52.638;9.216;2023-04-23T11:13:33;100314.50;;;16.89;88.74
32033;BME280;31720;52.638;9.216;2023-04-23T11:16:37;100320.31;;;16.73;85.04
32033;BME280;31720;52.638;9.216;2023-04-23T11:19:39;100320.31;;;16.73;84.78
32033;BME280;31720;52.638;9.216;2023-04-23T11:22:42;100321.94;;;16.86;83.64
32033;BME280;31720;52.638;9.216;2023-04-23T11:25:45;100315.41;;;16.99;84.34
32033;BME280;31720;52.638;9.216;2023-04-23T11:28:48;100315.81;;;17.35;83.48
32033;BME280;31720;52.638;9.216;2023-04-23T11:31:54;100309.56;;;17.56;80.84
32033;BME280;31720;52.638;9.216;2023-04-23T11:34:56;100301.91;;;17.72;83.47
32033;BME280;31720;52.638;9.216;2023-04-23T11:37:59;100306.94;;;17.85;80.29
32033;BME280;31720;52.638;9.216;2023-04-23T11:41:01;100302.03;;;17.80;79.31
32033;BME280;31720;52.638;9.216;2023-04-23T11:44:04;100299.53;;;17.98;77.73
32033;BME280;31720;52.638;9.216;2023-04-23T11:47:08;100301.50;;;17.96;77.52
32033;BME280;31720;52.638;9.216;2023-04-23T11:50:11;100304.03;;;17.78;77.27
32033;BME280;31720;52.638;9.216;2023-04-23T11:53:16;100296.00;;;17.59;81.52
32033;BME280;31720;52.638;9.216;2023-04-23T11:56:18;100288.28;;;17.56;84.78
32033;BME280;31720;52.638;9.216;2023-04-23T11:59:20;100295.28;;;17.57;81.59
32033;BME280;31720;52.638;9.216;2023-04-23T12:02:23;100285.06;;;17.42;84.15
32033;BME280;31720;52.638;9.216;2023-04-23T12:05:27;100298.25;;;17.54;81.57
32033;BME280;31720;52.638;9.216;2023-04-23T12:08:31;100279.22;;;17.58;86.18
32033;BME280;31720;52.638;9.216;2023-04-23T12:11:34;100281.06;;;17.96;82.37
32033;BME280;31720;52.638;9.216;2023-04-23T12:14:36;100276.34;;;18.57;75.95
32033;BME280;31720;52.638;9.216;2023-04-23T12:17:39;100276.31;;;18.76;77.87
32033;BME280;31720;52.638;9.216;2023-04-23T12:20:40;100274.06;;;18.81;79.96
32033;BME280;31720;52.638;9.216;2023-04-23T12:23:42;100270.78;;;19.15;81.68
32033;BME280;31720;52.638;9.216;2023-04-23T12:26:44;100272.00;;;19.48;72.88
32033;BME280;31720;52.638;9.216;2023-04-23T12:29:58;100267.47;;;19.13;73.04
32033;BME280;31720;52.638;9.216;2023-04-23T12:33:01;100266.25;;;18.70;70.69
32033;BME280;31720;52.638;9.216;2023-04-23T12:36:10;100268.25;;;18.39;75.81
32033;BME280;31720;52.638;9.216;2023-04-23T12:39:26;100262.72;;;18.22;74.47
32033;BME280;31720;52.638;9.216;2023-04-23T12:42:28;100259.28;;;18.49;80.25
32033;BME280;31720;52.638;9.216;2023-04-23T12:45:35;100260.69;;;18.54;76.80
32033;BME280;31720;52.638;9.216;2023-04-23T12:48:38;100260.53;;;18.55;80.29
32033;BME280;31720;52.638;9.216;2023-04-23T12:51:40;100256.19;;;18.54;78.44
32033;BME280;31720;52.638;9.216;2023-04-23T12:54:41;100262.34;;;18.55;80.02
32033;BME280;31720;52.638;9.216;2023-04-23T12:57:43;100256.22;;;18.35;77.06
32033;BME280;31720;52.638;9.216;2023-04-23T13:00:45;100255.69;;;18.31;75.88
32033;BME280;31720;52.638;9.216;2023-04-23T13:03:48;100254.00;;;18.40;73.56
32033;BME280;31720;52.638;9.216;2023-04-23T13:06:49;100254.53;;;18.43;76.50
32033;BME280;31720;52.638;9.216;2023-04-23T13:09:50;100248.44;;;18.23;78.56
32033;BME280;31720;52.638;9.216;2023-04-23T13:12:52;100239.75;;;18.21;77.14
32033;BME280;31720;52.638;9.216;2023-04-23T13:15:53;100241.28;;;18.24;76.70
32033;BME280;31720;52.638;9.216;2023-04-23T13:18:56;100232.19;;;18.27;78.71
32033;BME280;31720;52.638;9.216;2023-04-23T13:21:57;100213.44;;;18.18;75.80
32033;BME280;31720;52.638;9.216;2023-04-23T13:24:59;100217.25;;;18.06;66.39
32033;BME280;31720;52.638;9.216;2023-04-23T13:28:00;100203.84;;;17.88;66.80
32033;BME280;31720;52.638;9.216;2023-04-23T13:31:02;100202.59;;;17.83;70.54
32033;BME280;31720;52.638;9.216;2023-04-23T13:34:05;100199.34;;;17.89;71.50
32033;BME280;31720;52.638;9.216;2023-04-23T13:37:06;100192.34;;;17.97;67.67
32033;BME280;31720;52.638;9.216;2023-04-23T13:40:09;100202.09;;;18.16;70.88
32033;BME280;31720;52.638;9.216;2023-04-23T13:43:11;100202.78;;;18.28;67.94
32033;BME280;31720;52.638;9.216;2023-04-23T13:46:12;100203.06;;;18.25;64.41
32033;BME280;31720;52.638;9.216;2023-04-23T13:49:15;100200.22;;;18.36;69.13
32033;BME280;31720;52.638;9.216;2023-04-23T13:52:16;100196.16;;;18.42;64.95
32033;BME280;31720;52.638;9.216;2023-04-23T13:55:18;100198.56;;;18.35;60.60
32033;BME280;31720;52.638;9.216;2023-04-23T13:58:19;100201.50;;;18.32;61.43
32033;BME280;31720;52.638;9.216;2023-04-23T14:01:20;100205.69;;;18.35;63.80
32033;BME280;31720;52.638;9.216;2023-04-23T14:04:23;100194.53;;;18.21;66.69
32033;BME280;31720;52.638;9.216;2023-04-23T14:07:25;100196.09;;;18.14;73.32
32033;BME280;31720;52.638;9.216;2023-04-23T14:10:27;100187.53;;;18.20;70.22
32033;BME280;31720;52.638;9.216;2023-04-23T14:13:29;100183.47;;;18.26;68.60
32033;BME280;31720;52.638;9.216;2023-04-23T14:16:31;100188.75;;;18.36;68.38
32033;BME280;31720;52.638;9.216;2023-04-23T14:19:33;100221.13;;;18.12;66.01
32033;BME280;31720;52.638;9.216;2023-04-23T14:22:37;100203.84;;;17.59;66.21
32033;BME280;31720;52.638;9.216;2023-04-23T14:25:40;100200.03;;;17.13;67.48
32033;BME280;31720;52.638;9.216;2023-04-23T14:28:44;100201.03;;;17.41;65.86
32033;BME280;31720;52.638;9.216;2023-04-23T14:31:46;100194.59;;;17.34;65.76
32033;BME280;31720;52.638;9.216;2023-04-23T14:34:50;100191.41;;;17.31;66.61
32033;BME280;31720;52.638;9.216;2023-04-23T14:37:51;100195.00;;;17.30;66.00
32033;BME280;31720;52.638;9.216;2023-04-23T14:40:52;100189.75;;;16.89;67.88
32033;BME280;31720;52.638;9.216;2023-04-23T14:43:54;100179.47;;;16.65;68.73
32033;BME280;31720;52.638;9.216;2023-04-23T14:46:55;100168.53;;;16.49;70.66
32033;BME280;31720;52.638;9.216;2023-04-23T14:49:58;100161.81;;;16.45;70.79
32033;BME280;31720;52.638;9.216;2023-04-23T14:53:00;100147.00;;;16.42;73.01
32033;BME280;31720;52.638;9.216;2023-04-23T14:56:03;100150.25;;;16.56;72.83
32033;BME280;31720;52.638;9.216;2023-04-23T14:59:05;100144.28;;;16.63;73.04
32033;BME280;31720;52.638;9.216;2023-04-23T15:02:07;100151.09;;;16.87;70.02
32033;BME280;31720;52.638;9.216;2023-04-23T15:05:09;100145.53;;;17.29;71.25
32033;BME280;31720;52.638;9.216;2023-04-23T15:08:11;100142.56;;;17.70;68.42
32033;BME280;31720;52.638;9.216;2023-04-23T15:11:13;100145.00;;;18.11;69.09
32033;BME280;31720;52.638;9.216;2023-04-23T15:14:19;100140.66;;;18.19;61.20
32033;BME280;31720;52.638;9.216;2023-04-23T15:17:24;100133.78;;;18.27;60.49
32033;BME280;31720;52.638;9.216;2023-04-23T15:20:27;100134.78;;;18.53;63.14
32033;BME280;31720;52.638;9.216;2023-04-23T15:23:29;100132.78;;;18.83;61.95
32033;BME280;31720;52.638;9.216;2023-04-23T15:26:31;100134.34;;;19.03;60.29
32033;BME280;31720;52.638;9.216;2023-04-23T15:29:32;100120.72;;;19.24;61.53
32033;BME280;31720;52.638;9.216;2023-04-23T15:32:34;100122.81;;;19.38;60.12
32033;BME280;31720;52.638;9.216;2023-04-23T15:35:36;100107.25;;;19.08;61.74
32033;BME280;31720;52.638;9.216;2023-04-23T15:38:38;100102.81;;;18.98;61.76
32033;BME280;31720;52.638;9.216;2023-04-23T15:41:39;100106.41;;;19.07;63.99
32033;BME280;31720;52.638;9.216;2023-04-23T15:44:40;100100.41;;;19.23;65.43